Time;durP1;ratioP1;P1;durP2;ratioP2;P2;SDS_P1;SDS_P2;PMS_P1;PMS_P2;Temp;Humidity;BMP_temperature;BMP_pressure;BME280_temperature;BME280_humidity;BME280_pressure;Samples;Min_cycle;Max_cycle;Signal;HPM_P1;HPM_P2
2021/11/10 00:00:22;;;;;;;5.75;4.00;;;10.30;74.50;;;;;;5039446;28;20025;-80
2021/11/10 00:02:48;;;;;;;6.90;4.72;;;10.30;74.50;;;;;;5071824;28;20098;-80
2021/11/10 00:05:15;;;;;;;6.30;4.30;;;10.30;74.50;;;;;;5071763;28;20037;-80
2021/11/10 00:07:41;;;;;;;5.45;4.20;;;10.30;74.50;;;;;;5071643;28;20505;-80
2021/11/10 00:10:09;;;;;;;5.60;4.30;;;10.20;74.50;;;;;;5054921;28;20033;-80
2021/11/10 00:12:37;;;;;;;6.90;4.40;;;10.20;74.50;;;;;;5054451;28;20497;-81
2021/11/10 00:15:03;;;;;;;6.78;4.45;;;10.20;74.50;;;;;;5055118;28;20048;-80
2021/11/10 00:17:30;;;;;;;6.25;4.40;;;10.20;74.50;;;;;;5056086;28;20540;-80
2021/11/10 00:19:56;;;;;;;6.75;4.78;;;10.10;74.40;;;;;;5054824;28;20052;-81
2021/11/10 00:22:22;;;;;;;7.22;4.43;;;10.10;74.40;;;;;;5054649;28;20523;-81
2021/11/10 00:24:48;;;;;;;5.55;4.10;;;10.10;74.40;;;;;;5037901;28;20127;-83
2021/11/10 00:27:14;;;;;;;7.30;4.25;;;10.10;74.40;;;;;;5055288;28;20458;-80
2021/11/10 00:29:39;;;;;;;5.93;4.18;;;10.10;74.40;;;;;;5054399;28;20504;-80
2021/11/10 00:32:05;;;;;;;5.40;3.83;;;10.00;74.40;;;;;;5055726;28;20462;-80
2021/11/10 00:34:31;;;;;;;7.40;4.50;;;10.00;74.40;;;;;;5054058;28;20084;-80
2021/11/10 00:36:57;;;;;;;5.20;3.78;;;10.00;74.40;;;;;;5055120;28;20025;-80
2021/11/10 00:39:23;;;;;;;5.25;4.10;;;10.00;74.40;;;;;;5054773;28;20083;-79
2021/11/10 00:41:48;;;;;;;5.50;4.07;;;10.00;75.10;;;;;;5054782;28;20036;-81
2021/11/10 00:44:14;;;;;;;7.10;4.38;;;9.90;74.40;;;;;;5054204;28;20405;-80
2021/11/10 00:46:40;;;;;;;5.57;4.20;;;9.90;74.40;;;;;;5070814;28;20029;-80
2021/11/10 00:49:06;;;;;;;6.82;4.53;;;9.90;74.40;;;;;;5054200;28;20508;-80
2021/11/10 00:51:31;;;;;;;6.13;4.03;;;9.90;74.40;;;;;;5054226;28;20036;-81
2021/11/10 00:53:57;;;;;;;5.60;4.18;;;9.90;74.40;;;;;;5054381;28;20041;-80
2021/11/10 00:56:24;;;;;;;5.97;4.13;;;9.90;74.40;;;;;;5037955;28;20044;-80
2021/11/10 00:58:50;;;;;;;6.00;4.30;;;9.80;74.40;;;;;;5054162;28;20033;-80
2021/11/10 01:01:16;;;;;;;5.18;3.65;;;9.80;74.40;;;;;;5037600;28;20376;-80
2021/11/10 01:03:42;;;;;;;6.10;4.45;;;9.80;74.40;;;;;;5038110;28;20397;-81
2021/11/10 01:06:08;;;;;;;6.85;4.18;;;9.80;74.40;;;;;;5053952;28;20059;-80
2021/11/10 01:08:37;;;;;;;5.53;4.18;;;9.70;74.40;;;;;;5053467;28;20364;-80
2021/11/10 01:11:03;;;;;;;5.28;3.97;;;9.70;74.40;;;;;;5053600;28;20126;-80
2021/11/10 01:13:29;;;;;;;5.60;3.92;;;9.70;74.40;;;;;;5053605;28;20041;-80
2021/11/10 01:15:59;;;;;;;5.70;4.05;;;9.70;74.40;;;;;;5037659;28;20041;-81
2021/11/10 01:18:25;;;;;;;6.38;4.30;;;9.70;74.40;;;;;;5054273;28;20037;-83
2021/11/10 01:20:54;;;;;;;5.75;4.07;;;9.60;74.40;;;;;;5053833;28;20047;-81
2021/11/10 01:23:20;;;;;;;6.80;3.78;;;9.60;74.40;;;;;;5052585;28;20029;-80
2021/11/10 01:25:46;;;;;;;5.43;3.53;;;9.60;74.40;;;;;;5053730;28;20036;-80
2021/11/10 01:28:12;;;;;;;5.57;4.07;;;9.60;74.40;;;;;;5052860;28;20140;-81
2021/11/10 01:30:40;;;;;;;5.10;3.78;;;9.60;74.40;;;;;;5054016;28;20454;-80
2021/11/10 01:33:07;;;;;;;5.28;3.45;;;9.60;74.40;;;;;;5053347;28;20358;-80
2021/11/10 01:35:34;;;;;;;5.45;3.70;;;9.50;74.40;;;;;;5053977;28;20033;-80
2021/11/10 01:38:00;;;;;;;6.45;3.85;;;9.50;74.40;;;;;;5054482;28;20028;-80
2021/11/10 01:40:30;;;;;;;5.20;3.38;;;9.50;74.40;;;;;;5053485;28;20119;-79
2021/11/10 01:42:56;;;;;;;5.20;3.75;;;9.50;74.50;;;;;;5053386;28;20039;-80
2021/11/10 01:45:24;;;;;;;6.82;4.10;;;9.50;74.40;;;;;;5053416;28;20048;-81
2021/11/10 01:47:53;;;;;;;5.10;3.55;;;9.50;74.40;;;;;;5053602;28;20051;-80
2021/11/10 01:50:19;;;;;;;5.65;3.63;;;9.40;74.40;;;;;;5053754;28;20123;-81
2021/11/10 01:52:46;;;;;;;5.85;3.88;;;9.40;74.40;;;;;;5053488;28;20052;-81
2021/11/10 01:55:14;;;;;;;6.43;3.80;;;9.40;74.40;;;;;;5053792;28;20025;-80
2021/11/10 01:57:44;;;;;;;5.45;3.53;;;9.40;74.50;;;;;;5053051;28;20029;-80
2021/11/10 02:00:19;;;;;;;5.80;3.53;;;9.30;74.30;;;;;;5053109;28;20078;-80
2021/11/10 02:02:51;;;;;;;5.88;3.85;;;9.40;74.50;;;;;;5052932;28;20021;-80
2021/11/10 02:05:40;;;;;;;5.15;3.67;;;9.30;74.40;;;;;;5052527;28;20127;-81
2021/11/10 02:08:10;;;;;;;4.63;3.58;;;9.30;74.30;;;;;;5054185;28;20032;-80
2021/11/10 02:10:37;;;;;;;4.97;3.42;;;9.30;74.40;;;;;;5052697;28;20028;-81
2021/11/10 02:13:05;;;;;;;4.50;3.60;;;9.30;74.50;;;;;;5054258;28;20462;-80
2021/11/10 02:15:32;;;;;;;5.85;3.65;;;9.30;74.50;;;;;;5036504;28;20029;-81
2021/11/10 02:18:04;;;;;;;6.35;3.95;;;9.20;74.40;;;;;;5052667;28;20024;-82
2021/11/10 02:20:35;;;;;;;6.18;3.53;;;9.20;74.40;;;;;;5052630;28;20094;-81
2021/11/10 02:23:06;;;;;;;6.28;3.92;;;9.20;74.40;;;;;;5052855;28;20028;-80
2021/11/10 02:25:32;;;;;;;5.60;3.60;;;9.20;74.50;;;;;;5052746;28;20050;-80
2021/11/10 02:27:59;;;;;;;6.20;4.00;;;9.20;74.40;;;;;;5054225;28;20057;-80
2021/11/10 02:30:26;;;;;;;4.53;3.53;;;9.20;74.50;;;;;;5035688;28;20033;-81
2021/11/10 02:32:58;;;;;;;5.13;3.83;;;9.10;74.50;;;;;;5052645;28;20120;-80
2021/11/10 02:35:27;;;;;;;5.63;3.75;;;9.10;74.50;;;;;;5057203;28;20079;-81
2021/11/10 02:37:57;;;;;;;5.30;3.85;;;9.10;74.40;;;;;;5059088;28;20107;-81
2021/11/10 02:40:25;;;;;;;6.60;3.80;;;9.10;74.50;;;;;;5060414;28;20040;-80
2021/11/10 02:42:53;;;;;;;4.72;3.33;;;9.10;74.50;;;;;;5060378;28;20032;-81
2021/11/10 02:45:20;;;;;;;4.93;3.78;;;9.10;74.50;;;;;;5059045;28;20024;-80
2021/11/10 02:47:47;;;;;;;6.72;3.78;;;9.00;74.40;;;;;;5059377;28;20124;-80
2021/11/10 02:50:13;;;;;;;6.07;3.90;;;9.00;74.40;;;;;;5059089;28;20075;-81
2021/11/10 02:52:39;;;;;;;5.30;3.78;;;9.00;74.50;;;;;;5059045;28;20123;-80
2021/11/10 02:55:06;;;;;;;5.72;3.58;;;9.00;74.50;;;;;;5058926;28;20059;-80
2021/11/10 02:57:31;;;;;;;5.18;3.65;;;9.00;74.50;;;;;;5043319;28;20029;-80
2021/11/10 02:59:57;;;;;;;6.55;3.70;;;9.00;74.50;;;;;;5058797;28;20374;-80
2021/11/10 03:02:28;;;;;;;5.50;3.65;;;9.00;74.50;;;;;;5059269;28;20036;-81
2021/11/10 03:04:58;;;;;;;5.47;3.95;;;8.90;74.40;;;;;;5060935;28;20029;-80
2021/11/10 03:07:24;;;;;;;5.05;3.28;;;8.90;74.40;;;;;;5059292;28;20029;-80
2021/11/10 03:09:51;;;;;;;5.53;3.50;;;8.90;74.40;;;;;;5042450;28;20037;-81
2021/11/10 03:12:24;;;;;;;6.07;3.75;;;8.90;74.40;;;;;;5059196;28;20048;-78
2021/11/10 03:14:50;;;;;;;5.38;3.55;;;8.90;74.40;;;;;;5059507;28;20021;-80
2021/11/10 03:17:19;;;;;;;4.13;3.58;;;8.80;74.40;;;;;;5058953;28;20056;-80
2021/11/10 03:19:46;;;;;;;4.55;3.08;;;8.80;74.40;;;;;;5058898;28;20021;-79
2021/11/10 03:22:15;;;;;;;5.72;3.88;;;8.80;74.40;;;;;;5043344;28;20369;-81
2021/11/10 03:24:45;;;;;;;5.15;3.47;;;8.80;74.40;;;;;;5059994;28;20116;-81
2021/11/10 03:27:14;;;;;;;5.28;3.50;;;8.80;74.40;;;;;;5058683;28;20473;-80
2021/11/10 03:29:41;;;;;;;5.22;3.65;;;8.80;74.40;;;;;;5058834;28;20091;-81
2021/11/10 03:32:11;;;;;;;5.63;3.35;;;8.70;74.40;;;;;;5058559;28;20068;-83
2021/11/10 03:34:38;;;;;;;5.63;3.85;;;8.70;74.40;;;;;;5058968;28;20033;-80
2021/11/10 03:37:04;;;;;;;4.65;3.30;;;8.70;74.40;;;;;;5058589;28;20036;-80
2021/11/10 03:39:35;;;;;;;4.07;3.33;;;8.70;74.40;;;;;;5043444;28;20526;-81
2021/11/10 03:42:01;;;;;;;4.72;3.30;;;8.70;74.40;;;;;;5058952;28;20083;-80
2021/11/10 03:44:28;;;;;;;4.55;3.53;;;8.60;74.40;;;;;;5058565;28;20064;-80
2021/11/10 03:46:55;;;;;;;5.38;3.72;;;8.60;74.40;;;;;;5055477;28;20078;-80
2021/11/10 03:49:23;;;;;;;6.55;4.10;;;8.60;74.40;;;;;;5055334;28;20036;-80
2021/11/10 03:51:49;;;;;;;6.90;3.70;;;8.60;74.50;;;;;;5055602;28;20087;-80
2021/11/10 03:54:16;;;;;;;5.18;3.60;;;8.60;74.50;;;;;;5055162;28;20064;-80
2021/11/10 03:56:44;;;;;;;5.00;3.47;;;8.60;74.40;;;;;;5055224;28;20037;-80
2021/11/10 03:59:10;;;;;;;4.70;3.42;;;8.50;74.40;;;;;;5054842;28;20025;-81
2021/11/10 04:01:36;;;;;;;5.75;3.72;;;8.50;74.40;;;;;;5038807;28;20550;-81
2021/11/10 04:04:03;;;;;;;6.68;4.18;;;8.50;74.40;;;;;;5055118;28;20025;-80
2021/11/10 04:06:30;;;;;;;5.35;3.58;;;8.50;74.40;;;;;;5055891;28;20462;-81
2021/11/10 04:08:57;;;;;;;4.90;3.63;;;8.50;74.40;;;;;;5055862;28;20354;-80
2021/11/10 04:11:24;;;;;;;6.18;3.65;;;8.50;74.40;;;;;;5054644;28;20036;-81
2021/11/10 04:13:51;;;;;;;5.03;3.78;;;8.50;74.50;;;;;;5054861;28;20036;-79
2021/11/10 04:16:20;;;;;;;5.13;3.53;;;8.40;74.40;;;;;;5071756;28;20104;-80
2021/11/10 04:18:53;;;;;;;6.10;3.80;;;8.40;74.40;;;;;;5054882;28;20025;-80
2021/11/10 04:21:22;;;;;;;5.95;4.07;;;8.40;74.40;;;;;;5055560;28;20039;-80
2021/11/10 04:23:53;;;;;;;6.60;3.60;;;8.40;74.40;;;;;;5055266;28;20097;-80
2021/11/10 04:26:23;;;;;;;5.07;3.85;;;8.40;74.40;;;;;;5055073;28;20017;-80
2021/11/10 04:28:50;;;;;;;5.50;3.63;;;8.40;74.40;;;;;;5054363;28;20041;-79
2021/11/10 04:31:17;;;;;;;5.20;3.63;;;8.40;74.40;;;;;;5054781;28;20025;-79
2021/11/10 04:33:44;;;;;;;4.90;3.60;;;8.30;74.40;;;;;;5054941;28;20392;-80
2021/11/10 04:36:11;;;;;;;7.38;4.03;;;8.30;74.40;;;;;;5054652;28;20029;-81
2021/11/10 04:38:40;;;;;;;5.20;3.95;;;8.40;74.50;;;;;;5054919;28;20048;-80
2021/11/10 04:41:07;;;;;;;5.70;3.97;;;8.30;74.40;;;;;;5054514;28;20029;-80
2021/11/10 04:43:34;;;;;;;5.85;3.88;;;8.30;74.40;;;;;;5054746;28;20037;-79
2021/11/10 04:46:09;;;;;;;5.28;3.72;;;8.30;74.50;;;;;;5037788;28;20036;-80
2021/11/10 04:48:50;;;;;;;5.95;3.90;;;8.30;74.50;;;;;;5054853;28;20082;-80
2021/11/10 04:51:17;;;;;;;6.35;4.03;;;8.30;74.60;;;;;;5037865;28;20131;-81
2021/11/10 04:53:47;;;;;;;6.07;3.83;;;8.20;74.40;;;;;;5054141;28;20064;-80
2021/11/10 04:56:14;;;;;;;4.80;3.55;;;8.20;74.50;;;;;;5054572;28;20068;-80
2021/11/10 04:58:41;;;;;;;5.15;3.65;;;8.20;74.50;;;;;;5053976;28;20028;-81
2021/11/10 05:01:15;;;;;;;4.63;3.35;;;8.20;74.50;;;;;;5054165;28;20033;-80
2021/11/10 05:03:40;;;;;;;6.57;3.60;;;8.20;74.50;;;;;;5054313;28;20033;-80
2021/11/10 05:06:08;;;;;;;5.50;3.83;;;8.20;74.50;;;;;;5054945;28;20043;-78
2021/11/10 05:08:34;;;;;;;4.70;3.47;;;8.20;74.60;;;;;;5053988;28;20039;-80
2021/11/10 05:11:00;;;;;;;5.97;3.88;;;8.10;74.50;;;;;;5053903;28;20451;-80
2021/11/10 05:13:26;;;;;;;5.55;3.72;;;8.20;74.50;;;;;;5054120;28;20116;-79
2021/11/10 05:15:53;;;;;;;5.35;3.63;;;8.20;74.50;;;;;;5053893;28;20060;-79
2021/11/10 05:18:19;;;;;;;4.80;3.88;;;8.10;74.50;;;;;;5053818;28;20400;-80
2021/11/10 05:20:47;;;;;;;5.57;3.70;;;8.10;74.50;;;;;;5037243;28;20544;-79
2021/11/10 05:23:15;;;;;;;4.95;3.70;;;8.10;74.50;;;;;;5054279;28;20036;-80
2021/11/10 05:25:41;;;;;;;4.63;3.50;;;8.10;74.50;;;;;;5037308;28;20037;-80
2021/11/10 05:28:07;;;;;;;5.32;3.70;;;8.10;74.50;;;;;;5053209;28;20481;-80
2021/11/10 05:30:36;;;;;;;5.43;3.63;;;8.10;74.50;;;;;;5054143;28;20044;-79
2021/11/10 05:33:02;;;;;;;5.30;3.80;;;8.00;74.40;;;;;;5054129;28;20064;-80
2021/11/10 05:35:29;;;;;;;5.05;3.60;;;8.00;74.50;;;;;;5053313;28;20465;-82
2021/11/10 05:37:54;;;;;;;5.65;4.03;;;8.00;74.50;;;;;;5054311;28;20030;-80
2021/11/10 05:40:20;;;;;;;5.85;3.80;;;8.00;74.50;;;;;;5053219;28;20478;-80
2021/11/10 05:42:46;;;;;;;5.82;4.00;;;8.00;74.50;;;;;;5053338;28;20040;-80
2021/11/10 05:45:12;;;;;;;5.43;3.80;;;8.00;74.50;;;;;;5054457;28;20439;-80
2021/11/10 05:47:38;;;;;;;5.55;3.70;;;8.00;74.50;;;;;;5054530;28;20032;-79
2021/11/10 05:50:05;;;;;;;5.47;3.80;;;7.90;74.50;;;;;;5036531;28;20127;-80
2021/11/10 05:52:32;;;;;;;5.55;4.25;;;8.00;74.60;;;;;;5053103;28;20033;-80
2021/11/10 05:54:58;;;;;;;5.70;3.95;;;7.90;74.50;;;;;;5053147;28;20112;-81
2021/11/10 05:57:24;;;;;;;5.72;3.83;;;7.90;74.50;;;;;;5069497;28;20068;-80
2021/11/10 05:59:49;;;;;;;6.85;4.30;;;7.90;74.50;;;;;;5054161;28;20381;-81
2021/11/10 06:02:19;;;;;;;5.80;4.35;;;7.90;74.50;;;;;;5053716;28;20033;-80
2021/11/10 06:04:45;;;;;;;5.43;3.72;;;7.90;74.60;;;;;;5053067;28;20029;-80
2021/11/10 06:07:11;;;;;;;6.10;4.25;;;7.90;74.50;;;;;;5053065;28;20051;-79
2021/11/10 06:09:37;;;;;;;6.15;4.10;;;7.90;74.50;;;;;;5052375;28;20529;-80
2021/11/10 06:12:03;;;;;;;5.53;4.00;;;7.80;74.50;;;;;;5052904;28;20128;-80
2021/11/10 06:14:29;;;;;;;5.28;3.80;;;7.80;74.50;;;;;;5052613;28;20053;-79
2021/11/10 06:16:56;;;;;;;6.00;3.88;;;7.80;74.50;;;;;;5052555;28;20029;-77
2021/11/10 06:19:23;;;;;;;5.78;3.80;;;7.80;74.50;;;;;;5052656;28;20024;-79
2021/11/10 06:21:49;;;;;;;5.55;4.10;;;7.80;74.50;;;;;;5053656;28;20107;-79
2021/11/10 06:24:17;;;;;;;6.07;3.95;;;7.80;74.50;;;;;;5052727;28;20029;-78
2021/11/10 06:26:44;;;;;;;5.43;3.75;;;7.80;74.50;;;;;;5053443;28;20033;-79
2021/11/10 06:29:10;;;;;;;5.93;4.20;;;7.80;74.60;;;;;;5052359;28;20075;-79
2021/11/10 06:31:36;;;;;;;6.45;3.95;;;7.80;74.50;;;;;;5052235;28;20071;-80
2021/11/10 06:34:01;;;;;;;5.47;4.03;;;7.80;74.60;;;;;;5052938;28;20040;-78
2021/11/10 06:36:27;;;;;;;5.30;3.85;;;7.70;74.50;;;;;;5053538;28;20033;-79
2021/11/10 06:38:53;;;;;;;6.50;3.95;;;7.70;74.50;;;;;;5052353;28;20025;-80
2021/11/10 06:41:19;;;;;;;5.90;4.20;;;7.70;74.50;;;;;;5052283;28;20132;-80
2021/11/10 06:43:50;;;;;;;6.45;3.90;;;7.70;74.60;;;;;;5036099;28;20525;-80
2021/11/10 06:46:17;;;;;;;6.68;4.20;;;7.70;74.60;;;;;;5052727;28;20021;-80
2021/11/10 06:48:43;;;;;;;6.15;4.10;;;7.70;74.50;;;;;;5052561;28;20372;-78
2021/11/10 06:51:14;;;;;;;6.32;4.38;;;7.70;74.50;;;;;;5052348;28;20048;-77
2021/11/10 06:53:41;;;;;;;5.85;3.88;;;7.70;74.50;;;;;;5053070;28;20056;-76
2021/11/10 06:56:06;;;;;;;6.10;4.35;;;7.70;74.50;;;;;;5051990;28;20027;-79
2021/11/10 06:58:32;;;;;;;5.72;4.32;;;7.60;74.50;;;;;;5052433;28;20121;-77
2021/11/10 07:00:58;;;;;;;5.50;3.83;;;7.70;74.60;;;;;;5068587;28;20436;-78
2021/11/10 07:03:24;;;;;;;5.85;3.85;;;7.60;74.50;;;;;;5052138;28;20460;-79
2021/11/10 07:05:49;;;;;;;5.85;4.25;;;7.60;74.50;;;;;;5052190;28;20071;-78
2021/11/10 07:08:15;;;;;;;5.95;4.43;;;7.60;74.50;;;;;;5052787;28;20373;-79
2021/11/10 07:10:43;;;;;;;6.82;4.55;;;7.60;74.50;;;;;;5052883;28;20115;-78
2021/11/10 07:13:09;;;;;;;6.43;4.50;;;7.60;74.60;;;;;;5051735;28;20135;-78
2021/11/10 07:15:35;;;;;;;6.75;4.28;;;7.60;74.50;;;;;;5052141;28;20056;-77
2021/11/10 07:18:02;;;;;;;6.70;3.92;;;7.60;74.50;;;;;;5053419;28;20033;-79
2021/11/10 07:20:27;;;;;;;6.00;4.45;;;7.60;74.50;;;;;;5052294;28;20025;-78
2021/11/10 07:22:58;;;;;;;7.60;4.38;;;7.60;74.50;;;;;;5055244;28;20112;-80
2021/11/10 07:25:24;;;;;;;5.68;4.30;;;7.50;74.50;;;;;;5055920;28;20029;-78
2021/11/10 07:27:50;;;;;;;6.43;4.10;;;7.50;74.50;;;;;;5055722;28;20224;-79
2021/11/10 07:30:16;;;;;;;8.77;3.95;;;7.50;74.60;;;;;;5056757;28;20442;-79
2021/11/10 07:32:42;;;;;;;6.00;4.55;;;7.50;74.60;;;;;;5038783;28;20044;-78
2021/11/10 07:35:11;;;;;;;6.70;4.20;;;7.50;74.60;;;;;;5055595;28;20025;-80
2021/11/10 07:37:37;;;;;;;6.18;4.22;;;7.50;74.60;;;;;;5071513;28;20488;-79
2021/11/10 07:40:07;;;;;;;7.00;4.60;;;7.50;74.60;;;;;;5056792;28;20088;-79
2021/11/10 07:42:33;;;;;;;5.55;4.28;;;7.50;74.70;;;;;;5055427;28;20029;-79
2021/11/10 07:45:14;;;;;;;5.88;4.38;;;7.40;74.60;;;;;;5055514;28;20033;-79
2021/11/10 07:47:41;;;;;;;6.40;4.20;;;7.50;74.70;;;;;;5072541;28;20078;-79
2021/11/10 07:50:13;;;;;;;5.97;4.00;;;7.50;74.70;;;;;;5056491;28;20516;-78
2021/11/10 07:52:39;;;;;;;5.80;4.07;;;7.40;74.80;;;;;;5055493;28;20044;-78
2021/11/10 07:55:06;;;;;;;5.55;4.05;;;7.40;74.70;;;;;;5055892;28;20021;-80
2021/11/10 07:57:33;;;;;;;7.03;4.70;;;7.40;74.70;;;;;;5055989;28;20033;-80
2021/11/10 08:00:01;;;;;;;6.75;4.80;;;7.40;74.70;;;;;;5056307;28;20025;-79
2021/11/10 08:02:26;;;;;;;6.15;4.35;;;7.50;74.80;;;;;;5056726;28;20446;-79
2021/11/10 08:04:52;;;;;;;6.50;4.75;;;7.40;74.80;;;;;;5072035;28;20082;-80
2021/11/10 08:07:18;;;;;;;5.60;4.18;;;7.40;74.80;;;;;;5056137;28;20025;-80
2021/11/10 08:09:44;;;;;;;6.30;4.20;;;7.40;74.80;;;;;;5055339;28;20040;-80
2021/11/10 08:12:09;;;;;;;6.72;4.65;;;7.40;74.80;;;;;;5055881;28;20121;-81
2021/11/10 08:14:35;;;;;;;5.82;4.25;;;7.40;74.80;;;;;;5056093;28;20037;-80
2021/11/10 08:17:01;;;;;;;5.47;4.55;;;7.40;74.80;;;;;;5056957;28;20374;-80
2021/11/10 08:19:27;;;;;;;6.95;4.40;;;7.40;74.80;;;;;;5038970;28;20040;-81
2021/11/10 08:21:52;;;;;;;7.53;5.10;;;7.40;74.90;;;;;;5055146;28;20117;-81
2021/11/10 08:24:18;;;;;;;6.07;4.28;;;7.40;74.90;;;;;;5055591;28;20032;-80
2021/11/10 08:26:44;;;;;;;6.80;4.80;;;7.40;74.90;;;;;;5055030;28;20044;-80
2021/11/10 08:29:11;;;;;;;6.72;4.70;;;7.40;74.90;;;;;;5054887;28;20045;-80
2021/11/10 08:31:36;;;;;;;6.07;4.53;;;7.50;75.00;;;;;;5038209;28;20037;-80
2021/11/10 08:34:02;;;;;;;5.97;4.10;;;7.40;75.00;;;;;;5055025;28;20476;-80
2021/11/10 08:36:28;;;;;;;6.75;4.68;;;7.40;75.00;;;;;;5071530;28;20029;-80
2021/11/10 08:38:54;;;;;;;6.82;5.07;;;7.40;75.00;;;;;;5056217;28;20025;-81
2021/11/10 08:41:21;;;;;;;5.80;4.47;;;7.50;75.10;;;;;;5021545;28;20033;-81
2021/11/10 08:43:48;;;;;;;6.85;4.30;;;7.40;75.20;;;;;;5054852;28;20389;-80
2021/11/10 08:46:15;;;;;;;6.43;4.35;;;7.50;75.20;;;;;;5071617;28;20033;-80
2021/11/10 08:48:41;;;;;;;8.02;5.60;;;7.40;75.20;;;;;;5071496;28;20036;-81
2021/11/10 08:51:07;;;;;;;7.15;4.80;;;7.50;75.20;;;;;;5071271;28;20481;-81
2021/11/10 08:53:34;;;;;;;6.53;4.75;;;7.50;75.20;;;;;;5055576;28;20040;-83
2021/11/10 08:56:00;;;;;;;6.00;4.55;;;7.50;75.30;;;;;;5054811;28;20021;-81
2021/11/10 08:58:27;;;;;;;6.13;4.10;;;7.50;75.30;;;;;;5071274;28;20086;-81
2021/11/10 09:00:54;;;;;;;5.60;4.45;;;7.50;75.30;;;;;;5055249;28;20028;-81
2021/11/10 09:03:22;;;;;;;6.40;4.75;;;7.60;75.40;;;;;;5054369;28;20525;-81
2021/11/10 09:05:52;;;;;;;5.93;4.57;;;7.60;75.50;;;;;;5054736;28;20025;-81
2021/11/10 09:08:20;;;;;;;5.75;4.40;;;7.60;75.50;;;;;;5054140;28;20155;-81
2021/11/10 09:10:46;;;;;;;6.13;4.13;;;7.60;75.50;;;;;;5055528;28;20454;-80
2021/11/10 09:13:12;;;;;;;6.80;4.95;;;7.60;75.50;;;;;;5055863;28;20087;-81
2021/11/10 09:15:38;;;;;;;6.10;4.50;;;7.70;75.60;;;;;;5054355;28;20363;-81
2021/11/10 09:18:06;;;;;;;6.70;4.60;;;7.70;75.60;;;;;;5054670;28;20040;-79
2021/11/10 09:20:34;;;;;;;6.55;4.35;;;7.70;75.60;;;;;;5055077;28;20029;-81
2021/11/10 09:23:02;;;;;;;6.13;4.13;;;7.70;75.60;;;;;;5053995;28;20021;-82
2021/11/10 09:25:30;;;;;;;6.07;4.20;;;7.70;75.60;;;;;;5055410;28;20021;-80
2021/11/10 09:28:00;;;;;;;5.50;3.97;;;7.80;75.70;;;;;;5053666;28;20041;-80
2021/11/10 09:30:28;;;;;;;6.80;4.38;;;7.80;75.70;;;;;;5053542;28;20032;-77
2021/11/10 09:32:55;;;;;;;4.90;3.78;;;7.80;75.70;;;;;;5053415;28;20032;-78
2021/11/10 09:35:23;;;;;;;5.55;4.35;;;7.80;75.80;;;;;;5053196;28;20033;-80
2021/11/10 09:37:52;;;;;;;5.72;4.13;;;7.90;75.80;;;;;;5053774;28;20025;-81
2021/11/10 09:40:21;;;;;;;6.32;4.82;;;7.90;75.90;;;;;;5053967;28;20028;-82
2021/11/10 09:42:47;;;;;;;6.22;4.47;;;7.90;75.90;;;;;;5053964;28;20056;-80
2021/11/10 09:45:17;;;;;;;6.45;4.78;;;8.00;75.90;;;;;;5068991;28;20025;-80
2021/11/10 09:47:44;;;;;;;7.75;4.60;;;8.00;76.00;;;;;;5052775;28;20056;-79
2021/11/10 09:50:12;;;;;;;6.38;4.30;;;8.00;76.00;;;;;;5053381;28;20083;-81
2021/11/10 09:52:38;;;;;;;6.60;4.45;;;8.10;76.10;;;;;;5069737;28;20045;-82
2021/11/10 09:55:06;;;;;;;7.22;4.55;;;8.10;76.10;;;;;;5070441;28;20033;-81
2021/11/10 09:57:32;;;;;;;7.28;4.93;;;8.20;76.20;;;;;;5069750;28;20021;-81
2021/11/10 09:59:58;;;;;;;7.00;5.20;;;8.20;76.20;;;;;;5052947;28;20028;-80
2021/11/10 10:02:24;;;;;;;6.13;4.70;;;8.20;76.20;;;;;;5053111;28;20037;-81
2021/11/10 10:04:49;;;;;;;6.30;4.70;;;8.30;76.30;;;;;;5053246;28;20097;-79
2021/11/10 10:07:16;;;;;;;6.45;4.55;;;8.30;76.30;;;;;;5052772;28;20438;-80
2021/11/10 10:09:43;;;;;;;5.80;4.32;;;8.30;76.40;;;;;;5036333;28;20056;-80
2021/11/10 10:12:09;;;;;;;7.35;4.80;;;8.30;76.40;;;;;;5053200;28;20428;-81
2021/11/10 10:14:36;;;;;;;6.70;4.38;;;8.40;76.50;;;;;;5053130;28;20037;-81
2021/11/10 10:17:04;;;;;;;6.03;4.60;;;8.40;76.50;;;;;;5069224;28;20392;-80
2021/11/10 10:19:42;;;;;;;5.47;4.20;;;8.40;76.50;;;;;;5054007;28;20025;-80
2021/11/10 10:22:17;;;;;;;6.82;4.75;;;8.50;76.70;;;;;;5053859;28;20033;-81
2021/11/10 10:24:48;;;;;;;6.10;4.40;;;8.50;77.40;;;;;;5053699;28;20025;-80
2021/11/10 10:27:23;;;;;;;6.13;4.60;;;8.50;76.70;;;;;;5069503;28;20031;-80
2021/11/10 10:30:28;;;;;;;6.45;4.40;;;8.60;76.80;;;;;;5052620;28;20044;-80
2021/11/10 10:33:00;;;;;;;7.80;5.15;;;8.60;76.90;;;;;;5052656;28;20033;-80
2021/11/10 10:35:40;;;;;;;7.30;4.93;;;8.60;76.80;;;;;;5053183;28;20078;-81
2021/11/10 10:38:08;;;;;;;5.22;4.25;;;8.60;76.90;;;;;;5069001;28;20029;-81
2021/11/10 10:40:35;;;;;;;6.82;4.53;;;8.60;76.80;;;;;;5052369;28;20446;-80
2021/11/10 10:43:02;;;;;;;6.75;4.63;;;8.70;77.00;;;;;;5052457;28;20090;-81
2021/11/10 10:45:41;;;;;;;7.78;5.22;;;8.70;77.00;;;;;;5051857;28;20099;-80
2021/11/10 10:48:12;;;;;;;6.60;4.78;;;8.70;77.10;;;;;;5052337;28;20032;-81
2021/11/10 10:50:39;;;;;;;6.70;5.10;;;8.80;77.00;;;;;;5052558;28;20029;-79
2021/11/10 10:53:05;;;;;;;8.88;5.65;;;8.80;77.00;;;;;;5052259;28;20025;-80
2021/11/10 10:55:37;;;;;;;8.82;5.32;;;8.80;77.00;;;;;;5052552;28;20036;-80
2021/11/10 10:58:07;;;;;;;5.85;4.75;;;8.80;77.00;;;;;;5056630;28;20170;-80
2021/11/10 11:00:33;;;;;;;6.50;4.80;;;8.90;77.10;;;;;;5056543;28;20031;-80
2021/11/10 11:03:14;;;;;;;6.55;5.13;;;8.90;77.10;;;;;;5056315;28;20384;-81
2021/11/10 11:05:42;;;;;;;7.78;4.70;;;8.90;77.30;;;;;;5056445;28;20029;-81
2021/11/10 11:08:30;;;;;;;5.82;4.28;;;8.90;77.10;;;;;;5056147;28;20163;-80
2021/11/10 11:10:58;;;;;;;6.63;5.25;;;8.90;77.30;;;;;;5056029;28;20044;-80
2021/11/10 11:13:48;;;;;;;7.63;5.15;;;9.00;77.10;;;;;;5056067;28;20493;-80
2021/11/10 11:16:17;;;;;;;7.03;5.03;;;9.00;77.30;;;;;;5057001;28;20115;-82
2021/11/10 11:18:43;;;;;;;7.38;5.13;;;9.00;77.10;;;;;;5057048;28;20477;-80
2021/11/10 11:21:23;;;;;;;8.88;5.30;;;9.00;77.10;;;;;;5055690;28;20067;-80
2021/11/10 11:23:48;;;;;;;7.68;5.13;;;9.10;77.30;;;;;;5057747;28;20041;-80
2021/11/10 11:26:31;;;;;;;7.88;5.00;;;9.10;77.20;;;;;;5055656;28;20041;-80
2021/11/10 11:28:59;;;;;;;7.78;5.65;;;9.10;77.40;;;;;;5055365;28;20374;-81
2021/11/10 11:31:34;;;;;;;5.93;4.60;;;9.20;77.30;;;;;;5055608;28;20087;-81
2021/11/10 11:34:01;;;;;;;6.75;5.10;;;9.10;77.30;;;;;;5056846;28;20116;-81
2021/11/10 11:36:47;;;;;;;7.47;5.15;;;9.20;77.30;;;;;;5055566;28;20025;-80
2021/11/10 11:39:13;;;;;;;6.45;5.18;;;9.20;77.40;;;;;;5057153;28;20104;-80
2021/11/10 11:41:39;;;;;;;8.77;5.03;;;9.20;77.20;;;;;;5072349;28;20112;-80
2021/11/10 11:44:06;;;;;;;6.75;5.28;;;9.30;77.30;;;;;;5055169;28;20397;-80
2021/11/10 11:46:41;;;;;;;7.30;5.60;;;9.30;77.20;;;;;;5055788;28;20031;-80
2021/11/10 11:49:07;;;;;;;6.30;4.65;;;9.30;77.30;;;;;;5055190;28;20025;-82
2021/11/10 11:51:35;;;;;;;6.90;5.18;;;9.40;77.20;;;;;;5055183;28;20485;-81
2021/11/10 11:54:02;;;;;;;7.72;5.28;;;9.40;77.30;;;;;;5055361;28;20469;-80
2021/11/10 11:56:29;;;;;;;6.85;5.57;;;9.50;77.30;;;;;;5071765;28;20086;-80
2021/11/10 11:58:59;;;;;;;6.80;5.30;;;9.50;77.30;;;;;;5056203;28;20473;-80
2021/11/10 12:01:26;;;;;;;7.82;5.65;;;9.50;77.30;;;;;;5054890;28;20029;-80
2021/11/10 12:03:58;;;;;;;8.73;6.25;;;9.50;77.30;;;;;;5055373;28;20025;-81
2021/11/10 12:06:25;;;;;;;7.43;5.40;;;9.60;77.30;;;;;;5055377;28;20393;-81
2021/11/10 12:08:52;;;;;;;7.88;5.50;;;9.60;77.30;;;;;;5054778;28;20500;-80
2021/11/10 12:11:21;;;;;;;7.63;5.65;;;9.70;77.40;;;;;;5054845;28;20032;-80
2021/11/10 12:14:02;;;;;;;9.00;6.03;;;9.70;77.40;;;;;;5055004;28;20032;-80
2021/11/10 12:16:28;;;;;;;9.15;5.90;;;9.80;77.50;;;;;;5056064;28;20473;-81
2021/11/10 12:19:02;;;;;;;8.88;6.07;;;9.80;77.30;;;;;;5054330;28;20064;-81
2021/11/10 12:21:35;;;;;;;8.25;5.75;;;9.80;77.40;;;;;;5055062;28;20041;-80
2021/11/10 12:24:10;;;;;;;7.47;5.85;;;9.80;77.30;;;;;;5071682;28;20029;-79
2021/11/10 12:27:05;;;;;;;8.43;5.53;;;9.90;78.00;;;;;;5055244;28;20044;-81
2021/11/10 12:29:51;;;;;;;8.85;5.65;;;9.90;77.50;;;;;;5054871;28;20048;-79
2021/11/10 12:32:22;;;;;;;8.02;6.18;;;10.00;77.40;;;;;;5055866;28;20039;-80
2021/11/10 12:34:51;;;;;;;7.68;5.60;;;10.00;77.30;;;;;;5054165;28;20474;-77
2021/11/10 12:37:26;;;;;;;8.38;6.13;;;10.10;77.40;;;;;;5055486;28;20499;-78
2021/11/10 12:40:09;;;;;;;8.27;5.78;;;10.10;77.50;;;;;;5055685;28;20029;-78
2021/11/10 12:42:55;;;;;;;10.00;6.03;;;10.20;77.50;;;;;;5054278;28;20060;-78
2021/11/10 12:45:37;;;;;;;7.10;5.35;;;10.20;77.60;;;;;;5053962;28;20528;-79
2021/11/10 12:48:06;;;;;;;7.68;5.88;;;10.20;77.50;;;;;;5054355;28;20029;-78
2021/11/10 12:50:33;;;;;;;8.38;5.82;;;10.30;77.50;;;;;;5054043;28;20508;-76
2021/11/10 12:53:01;;;;;;;8.95;6.45;;;10.30;77.50;;;;;;5053687;28;20087;-77
2021/11/10 12:55:30;;;;;;;9.25;5.90;;;10.40;77.60;;;;;;5054519;28;20036;-77
2021/11/10 12:57:58;;;;;;;9.00;5.97;;;10.40;77.60;;;;;;5055467;28;20029;-79
2021/11/10 13:00:25;;;;;;;9.10;6.72;;;10.50;77.60;;;;;;5054809;28;20031;-78